Airfield :
LOGIN :

Register | Disclaimer

   EN    FR    IT 

 










Legend :    VFR   Marginal VFR   IFR   Intensive IFR   Very Intensive IFR
Visi :
Ceiling :
>= 8 km
>= 3000ft
5 to 8 km
1000 to 3000 ft
1500m to 5 km
500 to 1000 ft
800 to 1500m
200 to 500 ft
< 800m
< 200 ft
Symbols :   Thunderstorms  Fog  Heavy snow  Heavy precipitations  Wind > 20 kt
SIGMETs :     Misc.  Thunderstorms  Icing  Turbulence  Mountain Waves  Volcanic Ashes






- Airport Elevation : 288 ft
- IATA code : BZZ


EGVN - RAF Brize Norton

CURRENT METAR :
  • 171150Z 24010G20KT 9999 SCT017 09/05 Q1007 TEMPO SCT030 RMK WHT TEMPO BLU

EXPIRED METARs :
  • 171120Z 24010KT 9999 FEW018 BKN022 08/04 Q1006 NOSIG RMK WHT WHT
  • 171050Z 24010G23KT 9999 -SHRA BKN022 08/04 Q1006 BECMG SCT030
  • 171020Z 23011G22KT 9999 SCT020 BKN032 07/03 Q1006 NOSIG RMK WHT WHT
  • 170950Z 23010KT 9999 FEW022 BKN034 07/03 Q1005 TEMPO SCT020 RMK BLU TEMPO WHT
  • 170920Z 23010KT 9999 FEW024 07/02 Q1005 TEMPO SCT020 RMK BLU TEMPO WHT

TAF COR TAF EGVN
Valid from the 17 at 12:00 until the 18 at 12:00 UTC


171137Z 1712/1812 22012KT 9999 FEW020
PROB30
TEMPO 1712/1717 26015G25KT 7000 SHRA SCT020CB
PROB40
TEMPO 1807/1812 23015G25KT -SHRA SCT015



MET'MAP, your aeronautical weather chart ! - Copyright ORBIFLY December 2007 - Disclaimer

ORBIFLY MET'MAP TEAM :

Programming & Development : Alexandra Zaïnal
Concept & original design : Baudouin d'Aumeries
Assistance for programming : Marc-Olivier Méhu
Technical & hardware support : Manuel Goepfert

Contact : metmap@orbifly.com




SOURCES & CREDITS :

   NOAA